Etusivu
METAR-TAF:

METAR-TAF

Lentoasemat :

Gage, Oklahoma, Yhdysvallat

Leveyspiiri: 36-17-48N, Pituuspiiri: 099-46-08W, korkeus merenpinnasta: 677 m

Tämänhetkinen sää

Tämä raportti tehtiin 1 tunti ja 7 minuuttia sitten, kello 23.53 UTC
Tuuli 7 kn idästä
Lämpötila 24°C
Kosteus 54%
Ilmanpaine 1010 hPa
Näkyvyys: 16.1 km
Hajanaisia pilviä 4500 ft:n korkeudessa

METAR: KGAG 172353Z AUTO 08007KT 10SM SCT045 24/14 A2983 RMK AO2 SLP082 T02390144 10261 20217 58019

Aika: 20:00 (01:00 UTC)


TAF: puuttuu

Säähavainnot ja -ennusteet yli 4000 lentoasemalta (METAR- ja TAF-raportit).

Käytössä olevat sääasemat on merkitty karttaan keltaisilla ja punaisilla pisteillä.

Aseta hiiri pisteen päälle nähdäksesi sääaseman nimen.

Klikkaa sitten nähdäksesi säähavainnot ja -ennusteet.

Kartan vaihtaminen: klikkaa mustalla rastilla varustettuja vihreitä pisteitä, niin voit zoomata sisään; viivalla varustettua vihreää pistettä, niin voit zoomata ulos tai vihreitä nuolia, niin pääset viereisille kartoille.


METAR-TAF: